Time;durP1;ratioP1;P1;durP2;ratioP2;P2;SDS_P1;SDS_P2;PMS_P1;PMS_P2;Temp;Humidity;BMP_temperature;BMP_pressure;BME280_temperature;BME280_humidity;BME280_pressure;Samples;Min_cycle;Max_cycle;Signal;HPM_P1;HPM_P2
2021/08/07 00:00:58;;;;;;;;;5.25;3.00;;;;;24.62;44.57;100168.56;5035936;28;50968;-55
2021/08/07 00:03:23;;;;;;;;;1.50;1.00;;;;;24.63;44.90;100170.22;5035903;28;51209;-54
2021/08/07 00:05:49;;;;;;;;;2.75;2.75;;;;;24.62;45.16;100176.88;5036337;28;51273;-54
2021/08/07 00:08:14;;;;;;;;;3.00;2.00;;;;;24.64;45.01;100176.59;5036705;28;51300;-54
2021/08/07 00:10:40;;;;;;;;;2.00;2.00;;;;;24.62;44.54;100176.88;5035957;28;52000;-52
2021/08/07 00:13:05;;;;;;;;;1.00;1.00;;;;;24.62;44.88;100174.09;5036189;28;51144;-55
2021/08/07 00:15:31;;;;;;;;;1.00;1.00;;;;;24.62;45.12;100176.88;5036507;28;51021;-56
2021/08/07 00:17:56;;;;;;;;;1.00;1.00;;;;;24.62;44.74;100170.50;5036352;28;51205;-55
2021/08/07 00:20:22;;;;;;;;;2.00;2.00;;;;;24.61;45.01;100169.66;5035850;28;51996;-54
2021/08/07 00:22:47;;;;;;;;;2.50;2.50;;;;;24.61;44.89;100164.13;5035955;28;50868;-52
2021/08/07 00:25:13;;;;;;;;;2.00;2.00;;;;;24.61;45.03;100163.28;5036027;28;51162;-55
2021/08/07 00:27:39;;;;;;;;;2.75;1.00;;;;;24.60;45.18;100170.75;5036316;28;50960;-52
2021/08/07 00:30:05;;;;;;;;;2.00;2.00;;;;;24.61;44.75;100163.28;5035852;28;52148;-55
2021/08/07 00:32:30;;;;;;;;;2.00;2.00;;;;;24.60;44.82;100162.47;5035719;28;50873;-55
2021/08/07 00:34:56;;;;;;;;;1.00;1.00;;;;;24.61;44.91;100161.34;5034606;28;50979;-53
2021/08/07 00:37:21;;;;;;;;;3.00;2.00;;;;;24.60;45.05;100154.16;5036087;28;51176;-55
2021/08/07 00:39:46;;;;;;;;;2.00;2.00;;;;;24.60;44.66;100151.38;5035148;28;50918;-53
2021/08/07 00:42:12;;;;;;;;;3.00;1.00;;;;;24.60;44.73;100145.84;5035889;28;51190;-53
2021/08/07 00:44:37;;;;;;;;;1.75;1.75;;;;;24.61;44.76;100158.59;5034214;28;51206;-56
2021/08/07 00:47:02;;;;;;;;;0.25;0.25;;;;;24.60;44.60;100156.09;5036014;28;51034;-54
2021/08/07 00:49:28;;;;;;;;;1.25;1.25;;;;;24.61;44.75;100154.97;5035067;28;51887;-54
2021/08/07 00:51:53;;;;;;;;;1.50;1.50;;;;;24.61;44.75;100152.22;5035613;28;51146;-56
2021/08/07 00:54:19;;;;;;;;;2.75;1.50;;;;;24.59;45.06;100158.00;5035684;28;51548;-54
2021/08/07 00:56:44;;;;;;;;;1.50;1.00;;;;;24.59;44.78;100146.91;5035493;28;51295;-54
2021/08/07 00:59:09;;;;;;;;;1.00;1.00;;;;;24.60;44.93;100148.63;5035397;28;51068;-56
2021/08/07 01:01:44;;;;;;;;;2.00;2.00;;;;;24.59;44.84;100149.69;5035550;28;51139;-56
2021/08/07 01:04:16;;;;;;;;;0.75;0.75;;;;;24.59;45.14;100155.22;5035356;28;51058;-55
2021/08/07 01:07:04;;;;;;;;;1.25;1.25;;;;;24.60;44.78;100150.56;5035783;28;51028;-55
2021/08/07 01:09:58;;;;;;;;;0.25;0.25;;;;;24.59;44.66;100140.53;5035076;28;52144;-55
2021/08/07 01:12:31;;;;;;;;;1.00;1.00;;;;;24.60;44.97;100147.78;5035770;28;51114;-52
2021/08/07 01:15:01;;;;;;;;;1.75;1.00;;;;;24.58;44.62;100145.25;5035439;28;51056;-55
2021/08/07 01:17:28;;;;;;;;;1.50;1.00;;;;;24.57;45.01;100140.81;5035637;28;51180;-56
2021/08/07 01:20:22;;;;;;;;;2.50;1.00;;;;;24.58;44.91;100136.09;5035290;28;51056;-55
2021/08/07 01:23:14;;;;;;;;;1.00;1.00;;;;;24.57;44.78;100138.03;5035438;28;50967;-53
2021/08/07 01:25:49;;;;;;;;;1.50;1.00;;;;;24.57;44.63;100149.13;5040587;28;51163;-55
2021/08/07 01:28:16;;;;;;;;;2.00;1.00;;;;;24.57;44.81;100134.44;5022288;28;51057;-54
2021/08/07 01:30:42;;;;;;;;;2.00;2.00;;;;;24.57;44.87;100140.81;5022036;28;51107;-53
2021/08/07 01:33:08;;;;;;;;;0.00;0.00;;;;;24.56;44.66;100133.63;5021773;28;51082;-55
2021/08/07 01:35:33;;;;;;;;;4.75;3.00;;;;;24.56;44.80;100133.63;5022138;28;51212;-53
2021/08/07 01:37:59;;;;;;;;;3.75;2.50;;;;;24.56;44.70;100125.31;5022090;28;51328;-54
2021/08/07 01:40:24;;;;;;;;;1.00;1.00;;;;;24.56;44.88;100128.06;5021249;28;51103;-54
2021/08/07 01:42:50;;;;;;;;;1.00;1.00;;;;;24.56;44.92;100130.00;5021813;28;51290;-55
2021/08/07 01:45:16;;;;;;;;;1.00;1.00;;;;;24.54;44.60;100124.75;5021799;28;51074;-54
2021/08/07 01:47:48;;;;;;;;;1.00;1.00;;;;;24.55;44.81;100128.34;5021888;28;50932;-53
2021/08/07 01:50:18;;;;;;;;;1.25;1.25;;;;;24.54;45.07;100127.50;5021641;28;51149;-54
2021/08/07 01:52:47;;;;;;;;;2.00;2.00;;;;;24.55;44.78;100120.88;5021739;28;51346;-54
2021/08/07 01:55:22;;;;;;;;;2.00;2.00;;;;;24.54;45.01;100123.91;5021494;28;51043;-56
2021/08/07 01:57:55;;;;;;;;;2.00;1.00;;;;;24.54;44.76;100121.16;5021800;28;51048;-55
2021/08/07 02:00:22;;;;;;;;;2.00;1.50;;;;;24.55;44.78;100114.50;5021511;28;52710;-54
2021/08/07 02:02:48;;;;;;;;;4.00;2.25;;;;;24.54;44.90;100112.84;5021763;28;51352;-55
2021/08/07 02:05:18;;;;;;;;;2.50;1.00;;;;;24.55;44.93;100109.78;5021778;28;51002;-55
2021/08/07 02:07:46;;;;;;;;;4.25;2.25;;;;;24.54;44.80;100110.91;5022083;28;50987;-54
2021/08/07 02:10:11;;;;;;;;;1.50;1.25;;;;;24.53;44.53;100112.00;5021124;28;52125;-56
2021/08/07 02:12:37;;;;;;;;;1.50;1.50;;;;;24.54;44.78;100107.31;5021884;28;51072;-54
2021/08/07 02:15:03;;;;;;;;;2.00;2.00;;;;;24.54;44.67;100101.75;5021876;28;51166;-55
2021/08/07 02:17:29;;;;;;;;;1.50;1.00;;;;;24.53;45.00;100105.63;5021546;28;51312;-54
2021/08/07 02:19:55;;;;;;;;;2.75;2.00;;;;;24.52;44.97;100110.34;5021113;28;51704;-54
2021/08/07 02:22:21;;;;;;;;;2.00;2.00;;;;;24.53;44.59;100105.63;5021397;28;50966;-54
2021/08/07 02:24:46;;;;;;;;;3.50;2.25;;;;;24.52;44.91;100098.44;5021456;28;51150;-54
2021/08/07 02:27:12;;;;;;;;;5.50;2.00;;;;;24.53;44.59;100094.56;5033131;28;51031;-54
2021/08/07 02:29:39;;;;;;;;;1.00;1.00;;;;;24.52;44.93;100099.25;5041152;28;52590;-53
2021/08/07 02:32:05;;;;;;;;;1.75;1.00;;;;;24.52;45.12;100096.50;5041334;28;51053;-52
2021/08/07 02:34:32;;;;;;;;;2.00;2.00;;;;;24.51;44.90;100086.53;5041736;28;51454;-54
2021/08/07 02:36:58;;;;;;;;;2.25;1.75;;;;;24.52;44.88;100090.13;5037892;28;50979;-55
2021/08/07 02:39:26;;;;;;;;;3.00;3.00;;;;;24.51;44.94;100086.53;5037436;28;51408;-56
2021/08/07 02:41:53;;;;;;;;;2.25;1.25;;;;;24.51;44.69;100086.53;5038111;28;51105;-53
2021/08/07 02:44:19;;;;;;;;;1.25;1.25;;;;;24.52;44.56;100081.81;5038249;28;51201;-54
2021/08/07 02:46:46;;;;;;;;;1.50;1.50;;;;;24.50;44.98;100073.78;5038139;28;51145;-56
2021/08/07 02:49:11;;;;;;;;;1.25;1.25;;;;;24.51;44.84;100080.16;5037486;28;51093;-55
2021/08/07 02:51:38;;;;;;;;;1.00;1.00;;;;;24.51;44.62;100080.16;5037775;28;51097;-54
2021/08/07 02:54:03;;;;;;;;;2.00;1.00;;;;;24.50;44.59;100075.72;5037858;28;51219;-56
2021/08/07 02:56:28;;;;;;;;;3.75;1.75;;;;;24.50;44.84;100075.72;5037886;28;50955;-55
2021/08/07 02:58:54;;;;;;;;;1.00;1.00;;;;;24.51;44.79;100074.63;5037548;28;52756;-52
2021/08/07 03:01:19;;;;;;;;;3.00;2.00;;;;;24.49;44.82;100063.81;5037563;28;50939;-52
2021/08/07 03:03:44;;;;;;;;;1.50;1.25;;;;;24.50;44.75;100064.66;5037556;28;51289;-54
2021/08/07 03:06:10;;;;;;;;;1.50;1.00;;;;;24.50;44.81;100059.13;5037831;28;51132;-53
2021/08/07 03:08:35;;;;;;;;;1.75;1.25;;;;;24.48;44.58;100053.81;5035758;28;52947;-55
2021/08/07 03:11:01;;;;;;;;;2.00;2.00;;;;;24.49;44.89;100063.81;5037657;28;50963;-53
2021/08/07 03:13:26;;;;;;;;;1.00;1.00;;;;;24.49;44.59;100061.06;5037655;28;50999;-54
2021/08/07 03:15:51;;;;;;;;;1.00;1.00;;;;;24.48;44.61;100056.59;5037870;28;50967;-55
2021/08/07 03:18:17;;;;;;;;;1.00;1.00;;;;;24.48;44.95;100051.88;5037219;28;51786;-55
2021/08/07 03:20:42;;;;;;;;;1.75;1.00;;;;;24.48;44.68;100053.81;5037195;28;51080;-60
2021/08/07 03:23:09;;;;;;;;;1.00;1.00;;;;;24.47;44.63;100049.38;5037557;28;51299;-56
2021/08/07 03:25:35;;;;;;;;;1.25;1.00;;;;;24.48;44.69;100037.22;5037430;28;51306;-56
2021/08/07 03:28:01;;;;;;;;;2.75;1.00;;;;;24.46;44.70;100037.47;5036856;28;51116;-56
2021/08/07 03:30:27;;;;;;;;;0.00;0.00;;;;;24.46;44.87;100048.56;5037370;28;51312;-58
2021/08/07 03:32:53;;;;;;;;;2.00;1.00;;;;;24.46;44.60;100040.25;5037310;28;50990;-56
2021/08/07 03:35:19;;;;;;;;;1.75;0.75;;;;;24.47;44.87;100038.31;5037564;28;51372;-55
2021/08/07 03:37:45;;;;;;;;;0.25;0.00;;;;;24.46;44.61;100034.72;5036982;28;51623;-56
2021/08/07 03:40:11;;;;;;;;;2.75;1.00;;;;;24.46;44.55;100033.88;5036849;28;50954;-55
2021/08/07 03:42:37;;;;;;;;;1.50;1.00;;;;;24.46;44.69;100036.66;5037370;28;50984;-55
2021/08/07 03:45:04;;;;;;;;;0.00;0.00;;;;;24.47;44.66;100032.78;5037254;28;51303;-55
2021/08/07 03:47:30;;;;;;;;;2.00;0.50;;;;;24.46;44.61;100031.09;5036491;28;51114;-56
2021/08/07 03:49:55;;;;;;;;;3.50;1.25;;;;;24.45;44.78;100026.69;5036908;28;51049;-54
2021/08/07 03:52:20;;;;;;;;;2.75;1.00;;;;;24.45;44.61;100027.50;5037134;28;51069;-53
2021/08/07 03:54:45;;;;;;;;;3.75;1.00;;;;;24.46;44.48;100020.03;5036975;28;51258;-55
2021/08/07 03:57:11;;;;;;;;;1.00;1.00;;;;;24.45;44.78;100019.22;5036819;28;51945;-55
2021/08/07 03:59:36;;;;;;;;;2.00;2.00;;;;;24.46;44.85;100017.28;5036935;28;51109;-56
2021/08/07 04:02:02;;;;;;;;;1.75;1.00;;;;;24.44;44.80;100012.00;5036922;28;51630;-55
2021/08/07 04:04:27;;;;;;;;;2.00;1.25;;;;;24.45;44.71;100010.06;5036976;28;51082;-58
2021/08/07 04:06:52;;;;;;;;;1.00;1.00;;;;;24.45;44.66;100012.84;5036587;28;51025;-55
2021/08/07 04:09:18;;;;;;;;;5.25;2.00;;;;;24.44;44.77;100009.22;5036440;28;50970;-56
2021/08/07 04:11:43;;;;;;;;;0.50;0.50;;;;;24.44;44.73;100014.78;5036658;28;50991;-56
2021/08/07 04:14:08;;;;;;;;;1.25;0.50;;;;;24.45;44.73;100010.06;5036857;28;50946;-55
2021/08/07 04:16:34;;;;;;;;;2.50;2.25;;;;;24.45;44.81;100018.38;5036499;28;51000;-55
2021/08/07 04:19:00;;;;;;;;;2.50;1.25;;;;;24.43;44.52;100012.28;5036389;28;51187;-55
2021/08/07 04:21:25;;;;;;;;;2.00;1.00;;;;;24.44;44.66;100019.47;5036323;28;51244;-56
2021/08/07 04:23:50;;;;;;;;;0.50;0.25;;;;;24.43;44.80;100013.09;5036690;28;50966;-55
2021/08/07 04:26:16;;;;;;;;;1.00;1.00;;;;;24.43;44.84;100017.81;5036262;28;51130;-55
2021/08/07 04:28:41;;;;;;;;;2.00;2.00;;;;;24.42;45.00;100016.97;5036554;28;50950;-57
2021/08/07 04:31:07;;;;;;;;;1.00;1.00;;;;;24.43;44.63;100009.50;5036367;28;51095;-56
2021/08/07 04:33:33;;;;;;;;;1.00;1.00;;;;;24.43;44.50;100006.75;5036758;28;50907;-54
2021/08/07 04:36:03;;;;;;;;;0.00;0.00;;;;;24.42;44.67;100018.91;5036236;28;52753;-56
2021/08/07 04:38:28;;;;;;;;;1.00;1.00;;;;;24.42;44.66;100007.84;5036058;28;51316;-56
2021/08/07 04:40:54;;;;;;;;;2.00;2.00;;;;;24.42;44.78;100010.63;5036337;28;51054;-55
2021/08/07 04:43:19;;;;;;;;;0.50;0.50;;;;;24.43;44.64;100003.97;5036624;28;51096;-56
2021/08/07 04:45:45;;;;;;;;;2.25;0.75;;;;;24.42;44.65;100002.31;5035857;28;50944;-56
2021/08/07 04:48:10;;;;;;;;;1.00;1.00;;;;;24.41;44.96;99993.19;5036172;28;51197;-56
2021/08/07 04:50:36;;;;;;;;;1.75;1.75;;;;;24.41;44.83;100003.41;5036004;28;50957;-55
2021/08/07 04:53:03;;;;;;;;;2.50;1.00;;;;;24.41;44.70;99998.72;5036429;28;50966;-56
2021/08/07 04:55:28;;;;;;;;;2.00;1.00;;;;;24.40;44.97;99997.03;5035660;28;51829;-55
2021/08/07 04:57:55;;;;;;;;;0.00;0.00;;;;;24.41;44.93;100006.19;5036246;28;51357;-55
2021/08/07 05:00:21;;;;;;;;;1.00;1.00;;;;;24.40;44.58;99996.22;5035259;28;51108;-55
2021/08/07 05:02:46;;;;;;;;;0.25;0.00;;;;;24.41;45.08;99990.41;5036192;28;50991;-55
2021/08/07 05:05:13;;;;;;;;;0.75;0.75;;;;;24.41;44.61;99986.81;5035757;28;51898;-57
2021/08/07 05:07:40;;;;;;;;;1.00;1.00;;;;;24.41;44.86;99989.56;5036039;28;51352;-57
2021/08/07 05:10:08;;;;;;;;;0.00;0.00;;;;;24.40;44.87;99988.75;5035591;28;50994;-55
2021/08/07 05:12:34;;;;;;;;;0.00;0.00;;;;;24.41;44.96;99992.34;5036065;28;50979;-56
2021/08/07 05:15:00;;;;;;;;;0.00;0.00;;;;;24.40;44.73;99983.22;5035833;28;51034;-55
2021/08/07 05:17:27;;;;;;;;;1.00;1.00;;;;;24.41;44.75;99978.50;5035793;28;51018;-55
2021/08/07 05:19:53;;;;;;;;;1.00;1.00;;;;;24.40;44.64;99985.16;5035728;28;51193;-55
2021/08/07 05:22:20;;;;;;;;;0.00;0.00;;;;;24.39;44.83;99984.31;5035930;28;51029;-56
2021/08/07 05:24:46;;;;;;;;;0.25;0.25;;;;;24.38;44.67;99974.31;5035219;28;52054;-56
2021/08/07 05:27:12;;;;;;;;;0.00;0.00;;;;;24.39;44.83;99981.53;5035677;28;51399;-56
2021/08/07 05:29:37;;;;;;;;;0.00;0.00;;;;;24.40;44.86;99979.59;5035566;28;51129;-55
2021/08/07 05:32:03;;;;;;;;;0.00;0.00;;;;;24.39;44.79;99969.63;5035907;28;51034;-54
2021/08/07 05:34:29;;;;;;;;;1.00;0.00;;;;;24.38;45.03;99960.47;5035159;28;51956;-55
2021/08/07 05:36:54;;;;;;;;;0.00;0.00;;;;;24.39;44.74;99962.16;5035533;28;51057;-54
2021/08/07 05:39:19;;;;;;;;;0.00;0.00;;;;;24.40;44.84;99954.69;5035408;28;51118;-55
2021/08/07 05:41:45;;;;;;;;;1.00;1.00;;;;;24.38;45.11;99956.88;5035865;28;51036;-57
2021/08/07 05:44:10;;;;;;;;;0.00;0.00;;;;;24.39;44.95;99966.88;5035318;28;54371;-56
2021/08/07 05:46:35;;;;;;;;;0.00;0.00;;;;;24.38;44.85;99968.78;5035359;28;51022;-55
2021/08/07 05:49:01;;;;;;;;;1.00;0.00;;;;;24.38;44.79;99963.25;5035615;28;51304;-56
2021/08/07 05:51:26;;;;;;;;;1.50;0.00;;;;;24.38;44.67;99960.47;5035567;28;51006;-55
2021/08/07 05:53:52;;;;;;;;;0.25;0.25;;;;;24.38;44.84;99956.88;5035058;28;51106;-56
2021/08/07 05:56:18;;;;;;;;;2.25;0.00;;;;;24.38;44.69;99957.72;5035396;28;51408;-56
2021/08/07 05:58:43;;;;;;;;;0.00;0.00;;;;;24.40;45.16;99965.78;5035119;28;51284;-54
2021/08/07 06:01:09;;;;;;;;;1.00;1.00;;;;;24.39;44.69;99961.34;5035795;28;51070;-54
2021/08/07 06:03:34;;;;;;;;;0.00;0.00;;;;;24.41;44.68;99959.13;5035063;28;51005;-54
2021/08/07 06:06:00;;;;;;;;;0.00;0.00;;;;;24.41;44.93;99959.13;5035426;28;51280;-55
2021/08/07 06:08:28;;;;;;;;;1.00;0.00;;;;;24.43;44.72;99954.16;5034939;28;51019;-55
2021/08/07 06:10:55;;;;;;;;;0.00;0.00;;;;;24.42;44.67;99949.72;5036309;28;50971;-55
2021/08/07 06:13:20;;;;;;;;;1.00;0.00;;;;;24.42;44.59;99958.84;5038546;28;51074;-56
2021/08/07 06:15:45;;;;;;;;;2.00;0.00;;;;;24.43;44.96;99960.50;5038768;28;51126;-55
2021/08/07 06:18:10;;;;;;;;;1.00;0.00;;;;;24.42;44.52;99964.38;5038388;28;51163;-55
2021/08/07 06:20:36;;;;;;;;;4.00;1.00;;;;;24.43;44.88;99965.22;5038525;28;51222;-54
2021/08/07 06:23:01;;;;;;;;;0.00;0.00;;;;;24.43;44.81;99962.44;5038261;28;51945;-54
2021/08/07 06:25:27;;;;;;;;;0.00;0.00;;;;;24.42;44.78;99949.72;5038492;28;51260;-56
2021/08/07 06:27:54;;;;;;;;;0.00;0.00;;;;;24.42;44.71;99955.25;5038115;28;51037;-56
2021/08/07 06:30:21;;;;;;;;;0.00;0.00;;;;;24.42;44.81;99949.72;5038689;28;50966;-55
2021/08/07 06:32:46;;;;;;;;;1.00;0.50;;;;;24.43;44.71;99951.38;5037891;28;51795;-55
2021/08/07 06:35:12;;;;;;;;;1.00;1.00;;;;;24.42;44.85;99960.78;5038309;28;50987;-56
2021/08/07 06:37:37;;;;;;;;;3.00;0.75;;;;;24.43;44.92;99954.16;5038477;28;51337;-56
2021/08/07 06:40:03;;;;;;;;;1.00;0.25;;;;;24.43;44.84;99952.22;5038000;28;50939;-54
2021/08/07 06:42:28;;;;;;;;;0.25;0.25;;;;;24.45;44.90;99950.00;5037996;28;51203;-56
2021/08/07 06:44:54;;;;;;;;;0.00;0.00;;;;;24.47;45.09;99946.97;5038490;28;51312;-56
2021/08/07 06:47:19;;;;;;;;;1.00;1.00;;;;;24.48;44.44;99943.91;5038255;28;51061;-55
2021/08/07 06:49:44;;;;;;;;;0.75;0.00;;;;;24.50;44.70;99940.06;5037887;28;51398;-56
2021/08/07 06:52:09;;;;;;;;;1.50;0.00;;;;;24.52;44.95;99944.22;5037828;28;54798;-54
2021/08/07 06:54:35;;;;;;;;;0.50;0.50;;;;;24.53;44.92;99948.66;5037919;28;51106;-57
2021/08/07 06:57:00;;;;;;;;;2.25;1.00;;;;;24.54;44.81;99944.78;5037976;28;50983;-56
2021/08/07 06:59:26;;;;;;;;;0.00;0.00;;;;;24.57;44.71;99951.69;5038173;28;51148;-56
2021/08/07 07:01:51;;;;;;;;;0.50;0.50;;;;;24.57;44.96;99935.91;5037621;28;59399;-57
2021/08/07 07:04:16;;;;;;;;;0.00;0.00;;;;;24.59;44.83;99938.41;5037663;28;51149;-57
2021/08/07 07:06:42;;;;;;;;;0.00;0.00;;;;;24.62;44.72;99946.19;5037667;28;51219;-54
2021/08/07 07:09:07;;;;;;;;;1.25;0.25;;;;;24.63;44.21;99945.09;5037420;28;51212;-55
2021/08/07 07:11:33;;;;;;;;;1.00;1.00;;;;;24.65;44.64;99938.16;5037584;28;53492;-54
2021/08/07 07:13:58;;;;;;;;;2.00;0.00;;;;;24.68;44.54;99945.94;5037795;28;51318;-54
2021/08/07 07:16:23;;;;;;;;;1.00;0.50;;;;;24.72;44.41;99943.47;5037398;28;51053;-56
2021/08/07 07:18:48;;;;;;;;;0.00;0.00;;;;;24.75;44.29;99946.50;5037749;28;51119;-55
2021/08/07 07:21:14;;;;;;;;;0.50;0.50;;;;;24.79;44.51;99941.25;5037258;28;54424;-54
2021/08/07 07:23:39;;;;;;;;;1.00;1.00;;;;;24.81;44.16;99941.84;5036609;28;50958;-56
2021/08/07 07:26:05;;;;;;;;;0.25;0.25;;;;;24.83;44.31;99939.63;5037604;28;51162;-55
2021/08/07 07:28:30;;;;;;;;;0.00;0.00;;;;;24.86;44.42;99933.53;5037597;28;51203;-56
2021/08/07 07:30:56;;;;;;;;;0.00;0.00;;;;;24.88;44.00;99939.63;5037330;28;51058;-56
2021/08/07 07:33:22;;;;;;;;;0.00;0.00;;;;;24.93;43.97;99941.59;5036984;28;51117;-54
2021/08/07 07:35:47;;;;;;;;;0.75;0.75;;;;;24.94;44.18;99933.00;5037454;28;51061;-55
2021/08/07 07:38:12;;;;;;;;;1.00;1.00;;;;;24.95;43.99;99928.28;5037291;28;51239;-55
2021/08/07 07:40:38;;;;;;;;;1.00;1.00;;;;;24.98;43.88;99930.50;5036808;28;51056;-56
2021/08/07 07:43:03;;;;;;;;;0.00;0.00;;;;;25.01;43.91;99924.41;5037051;28;51140;-55
2021/08/07 07:45:29;;;;;;;;;0.75;0.75;;;;;25.02;44.19;99932.50;5037438;28;51407;-54
2021/08/07 07:47:54;;;;;;;;;1.00;1.00;;;;;25.06;44.02;99929.16;5037318;28;51048;-55
2021/08/07 07:50:20;;;;;;;;;1.00;1.00;;;;;25.09;43.85;99931.38;5037138;28;51523;-57
2021/08/07 07:52:48;;;;;;;;;1.00;1.00;;;;;25.11;44.00;99934.69;5035820;28;51123;-53
2021/08/07 07:55:13;;;;;;;;;1.00;1.00;;;;;25.09;43.94;99921.13;5036838;28;51117;-54
2021/08/07 07:57:39;;;;;;;;;0.00;0.00;;;;;25.08;43.79;99918.63;5037191;28;50863;-54
2021/08/07 08:00:05;;;;;;;;;1.00;1.00;;;;;25.06;43.83;99913.38;5036688;28;51664;-55
2021/08/07 08:02:31;;;;;;;;;0.75;0.75;;;;;25.08;43.70;99915.84;5036960;28;51100;-56
2021/08/07 08:04:56;;;;;;;;;0.00;0.00;;;;;25.08;43.99;99916.69;5019091;28;51082;-56
2021/08/07 08:07:21;;;;;;;;;0.00;0.00;;;;;25.06;43.75;99904.22;5037069;28;50972;-57
2021/08/07 08:09:47;;;;;;;;;0.00;0.00;;;;;25.05;43.87;99906.16;5036335;28;52047;-55
2021/08/07 08:12:12;;;;;;;;;3.75;1.00;;;;;25.03;43.87;99905.63;5036873;28;51001;-54
2021/08/07 08:14:37;;;;;;;;;0.00;0.00;;;;;25.01;43.88;99903.13;5036812;28;50926;-55
2021/08/07 08:17:03;;;;;;;;;1.00;1.00;;;;;24.99;44.11;99902.50;5036877;28;51061;-56
2021/08/07 08:19:29;;;;;;;;;0.00;0.00;;;;;24.99;43.92;99899.75;5036055;28;51984;-56
2021/08/07 08:21:54;;;;;;;;;0.00;0.00;;;;;24.98;43.78;99897.25;5036362;28;51122;-56
2021/08/07 08:24:19;;;;;;;;;1.50;1.50;;;;;24.97;43.95;99901.13;5036598;28;51204;-55
2021/08/07 08:26:45;;;;;;;;;0.00;0.00;;;;;24.97;44.09;99895.59;5036607;28;51148;-55
2021/08/07 08:29:10;;;;;;;;;1.25;1.00;;;;;24.98;43.78;99897.25;5036258;28;51159;-56
2021/08/07 08:31:35;;;;;;;;;0.00;0.00;;;;;24.98;44.10;99889.78;5036510;28;51002;-54
2021/08/07 08:34:01;;;;;;;;;0.75;0.00;;;;;24.97;43.96;99884.50;5033636;28;51141;-56
2021/08/07 08:36:26;;;;;;;;;1.25;0.75;;;;;24.97;43.86;99881.75;5036312;28;51235;-56
2021/08/07 08:38:51;;;;;;;;;0.00;0.00;;;;;24.96;43.96;99882.84;5035816;28;51780;-55
2021/08/07 08:41:17;;;;;;;;;0.00;0.00;;;;;24.95;44.19;99886.72;5036400;28;51038;-55
2021/08/07 08:43:45;;;;;;;;;0.00;0.00;;;;;24.93;43.94;99878.69;5036403;28;50997;-55
2021/08/07 08:46:10;;;;;;;;;0.00;0.00;;;;;24.93;44.13;99875.94;5036319;28;51144;-56
2021/08/07 08:48:37;;;;;;;;;1.25;1.25;;;;;24.92;43.98;99877.03;5035697;28;51096;-55
2021/08/07 08:51:08;;;;;;;;;0.75;0.75;;;;;24.91;44.28;99864.28;5036013;28;51284;-56
2021/08/07 08:53:37;;;;;;;;;0.00;0.00;;;;;24.91;44.42;99858.75;5036024;28;51227;-55
2021/08/07 08:56:02;;;;;;;;;0.00;0.00;;;;;24.92;44.25;99859.59;5036076;28;51157;-56
2021/08/07 08:58:30;;;;;;;;;1.00;1.00;;;;;24.90;44.10;99856.22;5035695;28;50995;-56
2021/08/07 09:00:55;;;;;;;;;0.50;0.50;;;;;24.88;44.37;99855.69;5035835;28;51059;-56
2021/08/07 09:03:21;;;;;;;;;1.00;1.00;;;;;24.87;44.37;99856.78;5035688;28;51285;-56
2021/08/07 09:05:46;;;;;;;;;1.00;1.00;;;;;24.86;44.20;99853.19;5034657;28;51245;-54
2021/08/07 09:08:15;;;;;;;;;0.00;0.00;;;;;24.86;44.12;99860.66;5035192;28;51427;-56
2021/08/07 09:10:40;;;;;;;;;1.50;1.00;;;;;24.85;44.55;99856.25;5035350;28;51308;-56
2021/08/07 09:13:18;;;;;;;;;1.00;0.00;;;;;24.84;44.04;99871.19;5035786;28;51118;-56
2021/08/07 09:15:43;;;;;;;;;1.00;1.00;;;;;24.83;44.48;99856.53;5035991;28;51223;-56
2021/08/07 09:18:21;;;;;;;;;0.00;0.00;;;;;24.82;44.24;99857.63;5033614;28;53997;-54
2021/08/07 09:20:50;;;;;;;;;1.00;1.00;;;;;24.83;44.25;99855.69;5035451;28;51214;-56
2021/08/07 09:23:29;;;;;;;;;0.75;0.75;;;;;24.81;44.06;99855.97;5035330;28;51009;-55
2021/08/07 09:25:54;;;;;;;;;2.00;1.50;;;;;24.81;44.32;99852.38;5035905;28;51065;-56
2021/08/07 09:28:19;;;;;;;;;1.00;1.00;;;;;24.81;44.40;99857.91;5035278;28;52362;-57
2021/08/07 09:30:45;;;;;;;;;0.00;0.00;;;;;24.80;44.54;99847.91;5035553;28;51174;-56
2021/08/07 09:33:19;;;;;;;;;2.00;1.00;;;;;24.80;44.46;99845.13;5035362;28;51361;-57
2021/08/07 09:35:45;;;;;;;;;1.00;1.00;;;;;24.80;44.57;99850.69;5035787;28;51077;-57
2021/08/07 09:38:18;;;;;;;;;1.00;0.00;;;;;24.79;44.73;99844.31;5035003;28;51879;-55
2021/08/07 09:40:48;;;;;;;;;0.25;0.25;;;;;24.77;44.64;99841.81;5035216;28;51264;-57
2021/08/07 09:43:16;;;;;;;;;1.25;0.00;;;;;24.80;44.43;99847.91;5035341;28;50962;-55
2021/08/07 09:45:42;;;;;;;;;1.00;1.00;;;;;24.79;44.54;99843.47;5036296;28;50978;-56
2021/08/07 09:48:12;;;;;;;;;2.25;1.25;;;;;24.77;44.73;99841.81;5038619;28;51042;-56
2021/08/07 09:50:38;;;;;;;;;0.50;0.50;;;;;24.77;44.65;99838.22;5037324;28;51070;-57
2021/08/07 09:53:16;;;;;;;;;1.00;1.00;;;;;24.77;44.71;99843.75;5038564;28;51081;-55
2021/08/07 09:56:04;;;;;;;;;2.00;2.00;;;;;24.76;44.74;99840.16;5038639;28;51201;-57
2021/08/07 09:58:30;;;;;;;;;0.75;0.75;;;;;24.75;44.79;99844.03;5038059;28;51941;-56
2021/08/07 10:00:55;;;;;;;;;1.50;0.25;;;;;24.77;44.73;99846.53;5038604;28;51328;-57
2021/08/07 10:03:24;;;;;;;;;2.50;1.75;;;;;24.76;44.87;99848.47;5038343;28;51383;-56
2021/08/07 10:05:50;;;;;;;;;2.00;2.00;;;;;24.75;44.94;99848.75;5036747;28;50992;-55
2021/08/07 10:08:16;;;;;;;;;0.50;0.50;;;;;24.75;44.83;99852.34;5037428;28;51003;-56
2021/08/07 10:10:43;;;;;;;;;2.25;1.50;;;;;24.75;45.08;99841.28;5037924;28;50924;-56
2021/08/07 10:13:09;;;;;;;;;1.75;1.75;;;;;24.74;44.74;99842.38;5038423;28;51074;-55
2021/08/07 10:15:38;;;;;;;;;1.75;1.00;;;;;24.74;44.98;99842.38;5038677;28;51053;-55
2021/08/07 10:18:04;;;;;;;;;2.50;1.00;;;;;24.74;44.87;99842.38;5037932;28;51125;-56
2021/08/07 10:20:30;;;;;;;;;1.25;1.25;;;;;24.73;44.84;99840.72;5038305;28;51052;-55
2021/08/07 10:22:57;;;;;;;;;0.50;0.50;;;;;24.73;44.98;99834.34;5037770;28;50950;-55
2021/08/07 10:25:24;;;;;;;;;0.00;0.00;;;;;24.73;44.94;99829.63;5038170;28;51402;-55
2021/08/07 10:27:55;;;;;;;;;1.25;1.25;;;;;24.73;45.03;99821.34;5037592;28;51176;-56
2021/08/07 10:30:21;;;;;;;;;2.00;1.25;;;;;24.73;44.88;99821.34;5037657;28;51265;-55
2021/08/07 10:32:47;;;;;;;;;1.50;1.50;;;;;24.71;45.04;99819.94;5038078;28;51139;-57
2021/08/07 10:35:13;;;;;;;;;0.75;0.25;;;;;24.71;44.98;99826.31;5037978;28;50915;-56
2021/08/07 10:37:40;;;;;;;;;1.00;1.00;;;;;24.70;45.41;99813.59;5037806;28;51198;-57
2021/08/07 10:40:08;;;;;;;;;1.00;1.00;;;;;24.71;44.85;99809.72;5037226;28;51064;-56
2021/08/07 10:42:35;;;;;;;;;0.00;0.00;;;;;24.70;44.96;99813.59;5037641;28;51075;-55
2021/08/07 10:45:04;;;;;;;;;2.00;1.00;;;;;24.70;45.09;99804.44;5037981;28;51022;-56
2021/08/07 10:47:45;;;;;;;;;1.25;1.00;;;;;24.70;45.13;99802.50;5037474;28;51045;-56
2021/08/07 10:50:25;;;;;;;;;1.00;1.00;;;;;24.70;45.09;99802.50;5037418;28;51081;-55
2021/08/07 10:52:56;;;;;;;;;0.00;0.00;;;;;24.70;45.20;99804.44;5036343;28;51049;-57
2021/08/07 10:55:55;;;;;;;;;0.25;0.25;;;;;24.71;45.12;99806.09;5037893;28;51263;-56
2021/08/07 10:58:46;;;;;;;;;1.00;1.00;;;;;24.70;45.29;99805.28;5030875;28;52055;-53
2021/08/07 11:01:24;;;;;;;;;1.25;1.25;;;;;24.70;45.20;99805.28;5037398;28;51215;-53
2021/08/07 11:04:17;;;;;;;;;1.25;1.00;;;;;24.70;45.06;99791.44;5037230;28;51063;-56
2021/08/07 11:06:46;;;;;;;;;1.25;0.00;;;;;24.70;45.28;99796.97;5037317;28;51112;-57
2021/08/07 11:09:32;;;;;;;;;1.00;1.00;;;;;24.71;45.23;99786.72;5036888;28;51158;-57
2021/08/07 11:12:06;;;;;;;;;1.50;1.50;;;;;24.71;45.00;99786.72;5035913;28;51455;-57
2021/08/07 11:14:34;;;;;;;;;2.50;2.00;;;;;24.71;44.91;99789.50;5037863;28;51203;-58
2021/08/07 11:17:05;;;;;;;;;1.50;1.50;;;;;24.73;45.19;99790.03;5037529;28;50931;-55
2021/08/07 11:20:05;;;;;;;;;2.50;1.00;;;;;24.73;45.07;99795.56;5037176;28;51998;-57
2021/08/07 11:22:44;;;;;;;;;3.50;2.00;;;;;24.73;45.42;99790.88;5032782;28;51265;-55
2021/08/07 11:25:17;;;;;;;;;2.00;2.00;;;;;24.74;44.88;99775.91;5036553;28;51146;-55
2021/08/07 11:27:45;;;;;;;;;2.25;1.00;;;;;24.73;45.27;99774.25;5037314;28;50955;-56
2021/08/07 11:30:23;;;;;;;;;1.00;1.00;;;;;24.75;45.39;99773.97;5036303;28;51013;-56